• Join FlightAware (Why Join?)
  • Login
  • US Flag 
04:34PM EDT


 

Airport Tracker/Info


-or-


 

Live Flight TrackerFlight Track Log ✈ N104HE ✈ 26-Oct-2013 ✈ KHUM - KLAL

Flight Track Log - Related Links

Times and Time Zones

All times are in EDT time to prevent confusion due to time zone crossing. See the N104HE flight status page for this flight to view local times or setup timezone preferences in your user account.

Time Position Orientation Groundspeed Altitude Reporting Facility
EDT Latitude Longitude Course Direction KTS MPH feet Rate Location/Type
08:32PM 29.5806 -90.5878 60° Northeast 89 102 3,100  Level Houston Center
08:33PM 29.5903 -90.5681 60° Northeast 95 109 3,600 720 Climbing Houston Center
08:34PM 29.6117 -90.5389 50° Northeast 115 132 4,700 780 Climbing Houston Center
08:35PM 29.6139 -90.5169 83° East 96 110 5,200 780 Climbing Houston Center
08:35PM 29.6211 -90.5083 46° Northeast 100 115 5,500 780 Climbing Houston Center
08:36PM 29.6297 -90.4853 67° East 101 116 6,000 540 Climbing Houston Center
08:36PM 29.6331 -90.4792 58° Northeast 101 116 6,100 660 Climbing Houston Center
08:37PM 29.6436 -90.4539 64° Northeast 107 123 6,700 780 Climbing Houston Center
08:37PM 29.6506 -90.4428 54° Northeast 105 121 6,900 540 Climbing Houston Center
08:38PM 29.6572 -90.4244 67° East 110 127 7,300 660 Climbing Houston Center
08:38PM 29.6647 -90.4131 53° Northeast 106 122 7,600 600 Climbing Houston Center
08:39PM 29.6708 -90.3928 71° East 111 128 7,900 480 Climbing Houston Center
08:39PM 29.6786 -90.3806 54° Northeast 109 125 8,100 480 Climbing Houston Center
08:40PM 29.6867 -90.3611 65° Northeast 113 130 8,400 540 Climbing Houston Center
08:40PM 29.6947 -90.3497 51° Northeast 111 128 8,700 540 Climbing Houston Center
08:41PM 29.7025 -90.3269 69° East 115 132 9,000 240 Climbing Houston Center
08:41PM 29.7092 -90.3161 55° Northeast 114 131 9,000  Level Houston Center
08:42PM 29.7181 -90.2906 68° East 129 148 9,000  Level Houston Center
08:42PM 29.7264 -90.2783 52° Northeast 123 142 9,000  Level Houston Center
08:43PM 29.7356 -90.2517 68° East 139 160 9,000  Level Houston Center
08:43PM 29.7431 -90.2403 53° Northeast 130 150 9,000  Level Houston Center
08:44PM 29.7533 -90.2150 65° Northeast 129 148 9,000  Level Houston Center
08:44PM 29.7597 -90.2042 56° Northeast 130 150 9,000  Level Houston Center
08:45PM 29.7689 -90.1783 68° East 128 147 9,000  Level Houston Center
08:45PM 29.7767 -90.1667 52° Northeast 131 151 9,000  Level Houston Center
08:46PM 29.7867 -90.1417 65° Northeast 130 150 9,000  Level Houston Center
08:46PM 29.7942 -90.1300 53° Northeast 131 151 9,000  Level Houston Center
08:47PM 29.8061 -90.1003 65° Northeast 130 150 9,000  Level Houston Center
08:47PM 29.8100 -90.0925 60° Northeast 131 151 9,000  Level Houston Center
08:48PM 29.8239 -90.0633 61° Northeast 131 151 9,000  Level Houston Center
08:48PM 29.8311 -90.0486 61° Northeast 131 151 9,000  Level Houston Center
08:49PM 29.8414 -90.0244 64° Northeast 132 152 9,000  Level Houston Center
08:49PM 29.8475 -90.0108 63° Northeast 132 152 9,000  Level Houston Center
08:50PM 29.8569 -89.9878 65° Northeast 131 151 9,000  Level Houston Center
08:50PM 29.8639 -89.9733 61° Northeast 131 151 9,000  Level Houston Center
08:51PM 29.8744 -89.9461 66° East 132 152 9,000  Level Houston Center
08:51PM 29.8789 -89.9342 67° East 133 153 9,000  Level Houston Center
08:52PM 29.8897 -89.9072 65° Northeast 133 153 9,000  Level Houston Center
08:52PM 29.8947 -89.8958 63° Northeast 133 153 9,000  Level Houston Center
08:53PM 29.9053 -89.8681 66° East 133 153 9,000  Level Houston Center
08:53PM 29.9094 -89.8569 67° East 133 153 9,000  Level Houston Center
08:54PM 29.9208 -89.8314 63° Northeast 132 152 9,000  Level Houston Center
08:54PM 29.9250 -89.8189 69° East 132 152 9,000  Level Houston Center
08:55PM 29.9400 -89.7806 66° East 132 152 9,000  Level Houston Center
08:56PM 29.9556 -89.7422 65° Northeast 132 152 9,000  Level Houston Center
08:57PM 29.9706 -89.7036 66° East 132 152 9,000  Level Houston Center
08:58PM 29.9864 -89.6656 64° Northeast 133 153 9,000  Level Houston Center
08:59PM 30.0042 -89.6194 66° East 133 153 9,000  Level Houston Center
09:00PM 30.0197 -89.5806 65° Northeast 134 154 9,000  Level Houston Center
09:01PM 30.0344 -89.5422 66° East 132 152 9,000  Level Houston Center
09:02PM 30.0494 -89.5031 66° East 133 153 9,000  Level Houston Center
09:04PM 30.0650 -89.4642 65° Northeast 134 154 9,000  Level Houston Center
09:05PM 30.0803 -89.4267 65° Northeast 132 152 9,000  Level Houston Center
09:06PM 30.0956 -89.3878 66° East 133 153 9,000  Level Houston Center
09:07PM 30.1106 -89.3503 65° Northeast 130 150 9,000  Level Houston Center
09:08PM 30.1261 -89.3114 65° Northeast 133 153 9,000  Level Houston Center
09:09PM 30.1406 -89.2731 66° East 132 152 9,000  Level Houston Center
09:10PM 30.1589 -89.2256 66° East 134 154 9,100  Climbing Houston Center
09:11PM 30.1744 -89.1872 65° Northeast 133 153 9,100  Level Houston Center
09:12PM 30.1894 -89.1486 66° East 133 153 9,100  Level Houston Center
09:13PM 30.2047 -89.1100 65° Northeast 132 152 9,100  Level Houston Center
09:14PM 30.2194 -89.0711 66° East 133 153 9,100  Level Houston Center
09:15PM 30.2350 -89.0308 66° East 135 155 9,100  Level Houston Center
09:16PM 30.2506 -88.9914 65° Northeast 136 157 9,100  Level Houston Center
09:17PM 30.2661 -88.9525 65° Northeast 134 154 9,100  Level Houston Center
09:18PM 30.2797 -88.9158 67° East 132 152 9,100  Level Houston Center
09:19PM 30.2953 -88.8753 66° East 136 157 9,100  Level Houston Center
09:20PM 30.3144 -88.8281 65° Northeast 136 157 9,100  Level Houston Center
09:21PM 30.3253 -88.7886 72° East 135 155 9,100  Level Houston Center
09:22PM 30.3242 -88.7444 92° East 137 158 9,100  Level Houston Center
09:23PM 30.3261 -88.7008 87° East 137 158 9,100  Level Houston Center
09:24PM 30.3272 -88.6578 88° East 136 157 9,100  Level Houston Center
09:25PM 30.3283 -88.6153 88° East 134 154 9,100  Level Houston Center
09:26PM 30.3300 -88.5711 87° East 137 158 9,100  Level Houston Center
09:27PM 30.3303 -88.5286 90° East 134 154 9,100  Level Houston Center
09:28PM 30.3311 -88.4856 89° East 134 154 9,100  Level Houston Center
09:29PM 30.3336 -88.4422 86° East 135 155 9,100  Level Houston Center
09:30PM 30.3333 -88.3986 90° East 136 157 9,100  Level Houston Center
09:31PM 30.3353 -88.3556 87° East 135 155 9,100  Level Houston Center
09:32PM 30.3358 -88.3122 89° East 136 157 9,100  Level Houston Center
09:33PM 30.3367 -88.2689 89° East 136 157 9,100  Level Houston Center
09:34PM 30.3372 -88.2164 89° East 136 157 9,100  Level Houston Center
09:35PM 30.3389 -88.1731 87° East 136 157 9,100  Level Houston Center
09:36PM 30.3406 -88.1308 87° East 134 154 9,100  Level Houston Center
09:37PM 30.3408 -88.0875 90° East 135 155 9,100  Level Houston Center
09:38PM 30.3422 -88.0442 88° East 135 155 9,100  Level Houston Center
09:39PM 30.3433 -88.0011 88° East 135 155 9,100  Level Houston Center
09:40PM 30.3444 -87.9569 88° East 137 158 9,100  Level Houston Center
09:41PM 30.3450 -87.9133 89° East 136 157 9,100  Level Houston Center
09:42PM 30.3461 -87.8692 88° East 138 159 9,100  Level Houston Center
09:43PM 30.3475 -87.8256 88° East 137 158 9,100  Level Houston Center
09:44PM 30.3475 -87.7811 90° East 138 159 9,100  Level Houston Center
09:45PM 30.3486 -87.7369 88° East 139 160 9,100  Level Houston Center
09:46PM 30.3489 -87.6919 90° East 139 160 9,100  Level Houston Center
09:47PM 30.3503 -87.6478 88° East 139 160 9,100  Level Houston Center
09:48PM 30.3500 -87.6222 91° East 139 160 9,100  Level Jacksonville Center
09:49PM 30.3494 -87.5764 91° East 138 159 9,100  Level Jacksonville Center
09:50PM 30.3511 -87.5331 87° East 138 159 9,100  Level Jacksonville Center
09:51PM 30.3506 -87.4875 91° East 138 159 9,100  Level Jacksonville Center
09:52PM 30.3522 -87.4417 88° East 140 161 9,100  Level Jacksonville Center
09:53PM 30.3517 -87.4008 91° East 139 160 9,100  Level Jacksonville Center
09:54PM 30.3533 -87.3575 87° East 139 160 9,100  Level Jacksonville Center
09:55PM 30.3528 -87.3119 91° East 138 159 9,100  Level Jacksonville Center
09:56PM 30.3542 -87.2661 88° East 138 159 9,100  Level Jacksonville Center
09:57PM 30.3558 -87.2206 88° East 138 159 9,100  Level Jacksonville Center
09:58PM 30.3553 -87.1747 91° East 138 159 9,100  Level Jacksonville Center
10:00PM 30.3540 -87.0934 91° East  Level FlightAware Approximate
10:07PM 30.3441 -86.7831 96° East  Level FlightAware Approximate
10:08PM 30.3403 -86.7389 96° East  Level FlightAware Approximate
10:09PM 30.3363 -86.6948 96° East  Level FlightAware Approximate
10:10PM 30.3324 -86.6507 96° East  Level FlightAware Approximate
10:11PM 30.3285 -86.6065 96° East  Level FlightAware Approximate
10:12PM 30.3246 -86.5624 96° East  Level FlightAware Approximate
10:13PM 30.3206 -86.5182 96° East  Level FlightAware Approximate
10:14PM 30.3166 -86.4741 96° East  Level FlightAware Approximate
10:15PM 30.3126 -86.4300 96° East  Level FlightAware Approximate
10:16PM 30.3086 -86.3859 96° East  Level FlightAware Approximate
10:16PM 30.3117 -86.3406 96° East 158 182 9,100  Level Jacksonville Center
10:17PM 30.3046 -86.3418 96° East  Level FlightAware Approximate
10:17PM 30.3067 -86.2969 98° East 158 182 9,100  Level Jacksonville Center
10:18PM 30.3006 -86.2976 96° East  Level FlightAware Approximate
10:18PM 30.3017 -86.2511 97° East 152 175 9,100  Level Jacksonville Center
10:19PM 30.2965 -86.2535 96° East  Level FlightAware Approximate
10:19PM 30.2986 -86.2053 94° East 142 163 9,100  Level Jacksonville Center
10:20PM 30.2925 -86.2094 96° East  Level FlightAware Approximate
10:20PM 30.2936 -86.1617 98° East 142 163 9,100  Level Jacksonville Center
10:21PM 30.2883 -86.1158 98° East 142 163 9,100  Level Jacksonville Center
10:22PM 30.2833 -86.0700 97° East 142 163 9,100  Level Jacksonville Center
10:23PM 30.2781 -86.0242 98° East 142 163 9,100  Level Jacksonville Center
10:24PM 30.2750 -85.9783 94° East 142 163 9,100  Level Jacksonville Center
10:25PM 30.2700 -85.9325 97° East 142 163 9,100  Level Jacksonville Center
10:26PM 30.2606 -85.8889 104° East 142 163 9,100  Level Jacksonville Center
10:27PM 30.2511 -85.8456 104° East 142 163 9,100  Level Jacksonville Center
10:28PM 30.2417 -85.8019 104° East 142 163 9,100  Level Jacksonville Center
10:29PM 30.2300 -85.7583 107° East 142 163 9,100  Level Jacksonville Center
10:30PM 30.2228 -85.7122 100° East 142 163 9,100  Level Jacksonville Center
10:31PM 30.2133 -85.6711 105° East 142 163 9,100  Level Jacksonville Center
10:32PM 30.2039 -85.6253 103° East 142 163 9,100  Level Jacksonville Center
10:33PM 30.1944 -85.5817 104° East 142 163 9,100  Level Jacksonville Center
10:34PM 30.1828 -85.5381 107° East 142 163 9,100  Level Jacksonville Center
10:35PM 30.1733 -85.4900 103° East 142 163 9,100  Level Jacksonville Center
10:36PM 30.1636 -85.4439 104° East 147 169 9,100  Level Jacksonville Center
10:37PM 30.1542 -85.4006 104° East 147 169 9,100  Level Jacksonville Center
10:38PM 30.1444 -85.3569 104° East 147 169 9,100  Level Jacksonville Center
10:39PM 30.1350 -85.3086 103° East 147 169 9,100  Level Jacksonville Center
10:40PM 30.1256 -85.2653 104° East 147 169 9,100  Level Jacksonville Center
10:41PM 30.1158 -85.2217 104° East 147 169 9,100  Level Jacksonville Center
10:42PM 30.1061 -85.1783 105° East 147 169 9,100  Level Jacksonville Center
10:43PM 30.0964 -85.1350 105° East 147 169 9,100  Level Jacksonville Center
10:44PM 30.0867 -85.0914 104° East 147 169 9,100  Level Jacksonville Center
10:45PM 30.0772 -85.0481 104° East 147 169 9,100  Level Jacksonville Center
10:46PM 30.0694 -85.0047 102° East 147 169 9,100  Level Jacksonville Center
10:47PM 30.0578 -84.9611 107° East 147 169 9,100  Level Jacksonville Center
10:48PM 30.0500 -84.9156 101° East 147 169 9,100  Level Jacksonville Center
10:49PM 30.0403 -84.8719 104° East 147 169 9,100  Level Jacksonville Center
10:50PM 30.0306 -84.8311 105° East 147 169 9,100 -60 Level Jacksonville Center
10:51PM 30.0186 -84.7878 108° East 147 169 9,000 -60 Descending Jacksonville Center
10:52PM 30.0131 -84.7444 98° East 147 169 9,000  Level Jacksonville Center
10:53PM 30.0011 -84.6986 107° East 147 169 9,000  Level Jacksonville Center
10:54PM 29.9933 -84.6578 102° East 147 169 9,000  Level Jacksonville Center
10:55PM 29.9836 -84.6119 104° East 147 169 9,000  Level Jacksonville Center
10:56PM 29.9736 -84.5758 108° East 141 162 9,000  Level Jacksonville Center
10:57PM 29.9639 -84.5253 103° East 146 168 9,000  Level Jacksonville Center
10:58PM 29.9539 -84.4844 106° East 146 168 9,000  Level Jacksonville Center
10:59PM 29.9419 -84.4386 107° East 146 168 9,000  Level Jacksonville Center
11:00PM 29.9319 -84.3953 105° East 146 168 9,000  Level Jacksonville Center
11:01PM 29.9242 -84.3497 101° East 146 168 9,000  Level Jacksonville Center
11:02PM 29.9142 -84.3064 105° East 146 168 9,000  Level Jacksonville Center
11:03PM 29.9022 -84.2631 108° East 146 168 9,000  Level Jacksonville Center
11:04PM 29.8942 -84.2175 102° East 146 168 9,000  Level Jacksonville Center
11:05PM 29.8842 -84.1839 109° East 146 168 9,000  Level Jacksonville Center
11:06PM 29.8742 -84.1308 102° East 146 168 9,000  Level Jacksonville Center
11:07PM 29.8642 -84.0878 105° East 146 168 9,000  Level Jacksonville Center
11:08PM 29.8564 -84.0444 102° East 146 168 9,000  Level Jacksonville Center
11:09PM 29.8464 -83.9989 104° East 146 168 9,000  Level Jacksonville Center
11:10PM 29.8361 -83.9556 105° East 146 168 9,000  Level Jacksonville Center
11:11PM 29.8242 -83.9100 107° East 146 168 9,000  Level Jacksonville Center
11:12PM 29.8075 -83.8717 117° Southeast 146 168 9,000  Level Jacksonville Center
11:13PM 29.7786 -83.8403 137° Southeast 141 162 9,000  Level Jacksonville Center
11:14PM 29.7539 -83.8064 130° Southeast 141 162 9,000  Level Jacksonville Center
11:15PM 29.7269 -83.7728 133° Southeast 141 162 9,000  Level Jacksonville Center
11:16PM 29.7022 -83.7367 128° Southeast 141 162 9,000  Level Jacksonville Center
11:17PM 29.6772 -83.7031 131° Southeast 141 162 9,000  Level Jacksonville Center
11:18PM 29.6483 -83.6717 137° Southeast 141 162 9,000  Level Jacksonville Center
11:19PM 29.6233 -83.6356 129° Southeast 141 162 9,000  Level Jacksonville Center
11:20PM 29.5986 -83.6019 130° Southeast 141 162 9,000  Level Jacksonville Center
11:21PM 29.5736 -83.5683 131° Southeast 141 162 9,000  Level Jacksonville Center
11:22PM 29.5467 -83.5347 133° Southeast 141 162 9,000  Level Jacksonville Center
11:23PM 29.5197 -83.5011 133° Southeast 141 162 9,000  Level Jacksonville Center
11:24PM 29.4947 -83.4675 131° Southeast 141 162 9,000  Level Jacksonville Center
11:25PM 29.4678 -83.4342 133° Southeast 141 162 9,000  Level Jacksonville Center
11:26PM 29.4431 -83.3981 128° Southeast 141 162 9,000  Level Jacksonville Center
11:27PM 29.4158 -83.3669 135° Southeast 141 162 9,000  Level Jacksonville Center
11:28PM 29.3869 -83.3264 129° Southeast 146 168 9,000  Level Jacksonville Center
11:29PM 29.3619 -83.2928 130° Southeast 146 168 9,000  Level Jacksonville Center
11:30PM 29.3350 -83.2594 133° Southeast 146 168 9,000  Level Jacksonville Center
11:31PM 29.3078 -83.2258 133° Southeast 146 168 9,000  Level Jacksonville Center
11:32PM 29.2808 -83.1903 131° Southeast 146 168 9,000  Level Jacksonville Center
11:33PM 29.2558 -83.1567 130° Southeast 146 168 9,000  Level Jacksonville Center
11:34PM 29.2286 -83.1233 133° Southeast 146 168 9,000  Level Jacksonville Center
11:35PM 29.2036 -83.0878 129° Southeast 146 168 9,000  Level Jacksonville Center
11:36PM 29.1767 -83.0567 135° Southeast 144 166 9,000  Level Jacksonville Center
11:36PM 29.1767 -83.0542 90° East 146 168 9,000  Level Jacksonville Center
11:37PM 29.1642 -83.0400 135° Southeast 144 166 9,000  Level Jacksonville Center
11:37PM 29.1517 -83.0161 121° Southeast 146 168 9,000  Level Jacksonville Center
11:38PM 29.1369 -83.0067 151° Southeast 143 165 9,000  Level Jacksonville Center
11:38PM 29.1244 -82.9853 124° Southeast 146 168 9,000  Level Jacksonville Center
11:39PM 29.1142 -82.9733 135° Southeast 144 166 9,000  Level Jacksonville Center
11:39PM 29.0953 -82.9497 132° Southeast 146 168 9,000  Level Jacksonville Center
11:40PM 29.0850 -82.9353 129° Southeast 144 166 9,000  Level Jacksonville Center
11:40PM 29.0725 -82.9164 127° Southeast 146 168 9,000  Level Jacksonville Center
11:41PM 29.0578 -82.8997 135° Southeast 145 167 9,000  Level Jacksonville Center
11:41PM 29.0431 -82.8831 135° Southeast 146 168 9,000  Level Jacksonville Center
11:42PM 29.0306 -82.8642 127° Southeast 147 169 9,000  Level Jacksonville Center
11:42PM 29.0181 -82.8475 131° Southeast 146 168 9,000  Level Jacksonville Center
11:43PM 29.0036 -82.8333 139° Southeast 143 165 9,000  Level Jacksonville Center
11:43PM 28.9908 -82.8142 127° Southeast 146 168 9,000  Level Jacksonville Center
11:44PM 28.9764 -82.7975 135° Southeast 144 166 9,000  Level Jacksonville Center
11:44PM 28.9639 -82.7764 124° Southeast 146 168 9,000 -120 Level Jacksonville Center
11:45PM 28.9492 -82.7644 145° Southeast 146 168 8,900 -300 Descending Jacksonville Center
11:45PM 28.9386 -82.7431 119° Southeast 146 168 8,700 -300 Descending Jacksonville Center
11:46PM 28.9261 -82.7311 140° Southeast 146 168 8,600 -420 Descending Jacksonville Center
11:47PM 28.8947 -82.6933 133° Southeast 146 168 8,100 -420 Descending Jacksonville Center
11:48PM 28.8697 -82.6578 129° Southeast 141 162 7,800 -360 Descending Jacksonville Center
11:50PM 28.8000 -82.5833 137° Southeast 137 158 7,000 -240 Descending Tampa TRACON
11:51PM 28.7833 -82.5500 120° Southeast 136 157 7,000  Level Tampa TRACON
11:52PM 28.7667 -82.5167 120° Southeast 139 160 7,000  Level Tampa TRACON
11:53PM 28.7333 -82.4833 139° Southeast 142 163 7,000 -60 Level Tampa TRACON
11:54PM 28.7000 -82.4667 156° South 138 159 6,900 -240 Descending Tampa TRACON
11:55PM 28.6500 -82.4500 164° South 133 153 6,500 -480 Descending Tampa TRACON
11:56PM 28.6167 -82.4167 139° Southeast 134 154 6,000 -600 Descending Tampa TRACON
11:57PM 28.5833 -82.4000 156° South 138 159 5,400 -540 Descending Tampa TRACON
11:58PM 28.5500 -82.3833 156° South 134 154 5,000 -240 Descending Tampa TRACON
11:59PM 28.5167 -82.3500 139° Southeast 133 153 5,000  Level Tampa TRACON
12:00AM 28.4833 -82.3333 156° South 139 160 5,000  Level Tampa TRACON
12:01AM 28.4500 -82.3167 156° South 141 162 5,000  Level Tampa TRACON
12:02AM 28.4167 -82.3000 156° South 137 158 5,000  Level Tampa TRACON
12:03AM 28.3833 -82.2667 139° Southeast 138 159 5,000 -240 Level Tampa TRACON
12:04AM 28.3500 -82.2500 156° South 135 155 4,600 -420 Descending Tampa TRACON
12:05AM 28.3167 -82.2333 156° South 132 152 4,200 -360 Descending Tampa TRACON
12:06AM 28.3000 -82.2167 139° Southeast 127 146 3,900 -360 Descending Tampa TRACON
12:07AM 28.2667 -82.2000 156° South 117 135 3,500 -420 Descending Tampa TRACON
12:08AM 28.2333 -82.1667 139° Southeast 120 138 3,100 -300 Descending Tampa TRACON
12:09AM 28.2167 -82.1500 139° Southeast 118 136 3,000 -60 Descending Tampa TRACON
12:10AM 28.1833 -82.1333 156° South 117 135 3,000  Level Tampa TRACON